Fredericksburg, TX

4:14 PM CDT on September 18, 2014 (GMT -0500)
Llano | Change Station
CLOSE
Current Station
Airport
Location: Llano,
Elevation: 1102 ft
Nearby Weather Stations
Active Advisory: Flash Flood Watch Active Notice: Public Information Statement

Elev 1102 ft 30.79 °N, 98.66 °W | Updated 19 minutes ago

Overcast
Overcast
75 °F
Feels Like 75 °F
N
12
Wind Variable Wind from NNE

Today
High -- | Low -- °F
--% Chance of Precip.
Yesterday
High -- | Low -- °F
Precip. -- in
7:21 AM 7:36 PM
Waning Crescent, 24% visible
Pressure 29.86 in
Visibility 2.0 miles
Clouds Mostly Cloudy 100 ft
Overcast 1600 ft
Dew Point 72 °F
Humidity 89%
Rainfall 0.10 in
Snow Depth Not available.
UV 2 out of 12
Pollen 7.80 out of 12
Air Quality Not available.
Flu Activity Not available.
METAR KAQO 182055Z AUTO 02010KT 2SM VCTS BR BKN001 OVC016 24/22 A2986 RMK AO2 LTG DSNT NE VSBY 3/4V5 P0009

More Conditions Fewer Conditions

Pressure 29.86 in
Visibility 2.0 miles
Clouds Mostly Cloudy 100 ft
Overcast 1600 ft
Dew Point 72 °F
Humidity 89%
Rainfall 0.10 in
Snow Depth Not available.
UV 2 out of 12
Pollen 7.80 out of 12
Air Quality Not available.
Flu Activity Not available.
METAR KAQO 182055Z AUTO 02010KT 2SM VCTS BR BKN001 OVC016 24/22 A2986 RMK AO2 LTG DSNT NE VSBY 3/4V5 P0009

More Conditions Fewer Conditions

Nowcast | as of 4:03 PM CDT on September 18, 2014

Flash Flood Watch in effect through Friday morning... Through 6 PM...showers and thunderstorms will develop and move toward the northeast. These storms will produce occasional lightning and moderate rain. Rainfall totals will be up to one inch.

×

10-Day Weather Forecast

Almanac

Astronomy

Sep. 18, 2014 Rise Set
Actual Time 7:21 AM CDT 7:36 PM CDT
Civil Twilight 6:57 AM CDT 8:00 PM CDT
Nautical Twilight 6:29 AM CDT 8:28 PM CDT
Astronomical Twilight 6:01 AM CDT 8:57 PM CDT
Moon 2:31 AM CDT 4:14 PM CDT
Length of Visible Light 13h 03m
Length of Day
12h 15m
Tomorrow will be 1m 50s shorter.
Waning Crescent, 24% of the Moon is Illuminated
Today
Waning Crescent
Sep 24
New
Oct 1
First Quarter
Oct 8
Full
Oct 15
Last Quarter

Today's Extremes

State Highs State Lows

Community

WunderPhotos

Upload Photos

1,754,448 photos uploaded!

WunderBlogs® & News

By Dr. Jeff Masters
Director of Meteorology, Weather Underground
By Kari Strenfel
Meteorologist, Weather Underground
By Christopher C. Burt
Weather Historian, Weather Underground
September 18, 2014
September 18, 2014
September 18, 2014

Nearby

Snow Depth

Station Depth Elevation
No new snow has been reported.

Earthquake Activity

City Distance Mag. Time & Date
No recent earthquake activity has been reported nearby.
Minimum magnitude displayed is 2.5.

Coastal Water Temperatures

Place Temperature
No Stations Reporting

Nearby Weather Stations